Time;durP1;ratioP1;P1;durP2;ratioP2;P2;SDS_P1;SDS_P2;PMS_P1;PMS_P2;Temp;Humidity;BMP_temperature;BMP_pressure;BME280_temperature;BME280_humidity;BME280_pressure;Samples;Min_cycle;Max_cycle;Signal;HPM_P1;HPM_P2
2022/02/11 00:07:40;;;;;;;;;;;3.40;99.90;;;;;;5082601;28;19924;-86
2022/02/11 00:10:10;;;;;;;;;;;3.60;99.90;;;;;;5061398;28;20041;-87
2022/02/11 00:12:39;;;;;;;;;;;3.70;99.90;;;;;;5085136;28;19924;-88
2022/02/11 00:17:50;;;;;;;;;;;3.60;99.90;;;;;;5094797;28;19924;-87
2022/02/11 00:20:18;;;;;;;;;;;3.50;99.90;;;;;;5067137;28;19932;-87
2022/02/11 00:22:46;;;;;;;;;;;3.50;99.90;;;;;;5082969;28;19936;-87
2022/02/11 00:25:16;;;;;;;;;;;3.50;99.90;;;;;;5063966;28;19924;-87
2022/02/11 00:33:15;;;;;;;;;;;3.60;99.90;;;;;;5060536;28;19924;-87
2022/02/11 00:35:54;;;;;;;;;;;3.40;99.90;;;;;;5093439;28;19932;-87
2022/02/11 01:03:42;;;;;;;;;;;3.30;99.90;;;;;;5039091;28;19928;-86
2022/02/11 01:06:13;;;;;;;;;;;3.30;99.90;;;;;;5102673;28;20354;-86
2022/02/11 01:08:41;;;;;;;;;;;3.20;99.90;;;;;;5085253;28;20401;-87
2022/02/11 01:11:15;;;;;;;;;;;3.10;99.90;;;;;;5086024;28;19935;-88
2022/02/11 01:13:44;;;;;;;;;;;3.20;99.90;;;;;;5103021;28;19924;-86
2022/02/11 01:16:18;;;;;;;;;;;3.20;99.90;;;;;;5067839;28;20406;-86
2022/02/11 01:18:55;;;;;;;;;;;3.20;99.90;;;;;;5089803;28;19924;-88
2022/02/11 01:21:33;;;;;;;;;;;3.20;99.90;;;;;;5084546;28;19924;-88
2022/02/11 01:24:19;;;;;;;;;;;3.10;99.90;;;;;;5101844;28;19928;-87
2022/02/11 01:35:13;;;;;;;;;;;3.10;99.90;;;;;;5084322;28;19928;-88
2022/02/11 02:09:53;;;;;;;;;;;2.90;99.90;;;;;;5106147;28;19932;-88
2022/02/11 02:15:21;;;;;;;;;;;2.80;99.90;;;;;;5107232;28;19924;-87
2022/02/11 02:57:43;;;;;;;;;;;2.70;99.90;;;;;;5088319;28;19924;-87
2022/02/11 03:00:51;;;;;;;;;;;2.60;99.90;;;;;;5083591;28;20347;-87
2022/02/11 03:14:54;;;;;;;;;;;2.50;99.90;;;;;;5108603;28;19924;-87
2022/02/11 04:56:25;;;;;;;;;;;2.20;99.90;;;;;;5062907;28;19931;-88
2022/02/11 05:01:41;;;;;;;;;;;2.30;99.90;;;;;;5080136;28;19932;-88
2022/02/11 05:04:08;;;;;;;;;;;2.30;99.90;;;;;;5047688;28;20406;-88
2022/02/11 05:06:36;;;;;;;;;;;2.20;99.90;;;;;;5081075;28;19936;-87
2022/02/11 05:09:03;;;;;;;;;;;2.30;99.90;;;;;;5063671;28;19924;-89
2022/02/11 05:11:32;;;;;;;;;;;2.20;99.90;;;;;;5063639;28;19924;-88
2022/02/11 05:14:00;;;;;;;;;;;2.30;99.90;;;;;;5069568;28;19924;-87
2022/02/11 05:16:27;;;;;;;;;;;2.30;99.90;;;;;;5059063;28;20186;-87
2022/02/11 05:18:55;;;;;;;;;;;2.10;99.90;;;;;;5093998;28;19932;-88
2022/02/11 05:21:24;;;;;;;;;;;2.30;99.90;;;;;;5082806;28;19933;-87
2022/02/11 05:23:51;;;;;;;;;;;2.00;99.90;;;;;;5068585;28;19928;-88
2022/02/11 05:26:20;;;;;;;;;;;2.20;99.90;;;;;;5065706;28;20310;-88
2022/02/11 05:28:48;;;;;;;;;;;2.20;99.90;;;;;;5065029;28;19928;-88
2022/02/11 05:31:16;;;;;;;;;;;2.60;99.90;;;;;;5084390;28;19932;-88
2022/02/11 05:33:44;;;;;;;;;;;2.50;99.90;;;;;;5067772;28;19932;-88
2022/02/11 05:36:11;;;;;;;;;;;2.10;99.90;;;;;;5091909;28;19931;-87
2022/02/11 05:38:39;;;;;;;;;;;2.10;99.90;;;;;;5091264;28;19948;-87
2022/02/11 05:41:06;;;;;;;;;;;2.10;99.90;;;;;;5060339;28;19935;-88
2022/02/11 05:43:40;;;;;;;;;;;2.10;99.90;;;;;;5073954;28;20436;-88
2022/02/11 05:46:10;;;;;;;;;;;2.10;99.90;;;;;;5090884;28;19930;-86
2022/02/11 05:48:45;;;;;;;;;;;0.60;99.90;;;;;;5090593;28;19928;-87
2022/02/11 05:51:15;;;;;;;;;;;2.10;99.90;;;;;;5102022;28;19924;-88
2022/02/11 05:53:42;;;;;;;;;;;2.00;99.90;;;;;;5064026;28;19929;-87
2022/02/11 05:56:10;;;;;;;;;;;2.00;99.90;;;;;;5084575;28;19935;-88
2022/02/11 05:58:38;;;;;;;;;;;2.00;99.90;;;;;;5085995;28;20375;-89
2022/02/11 06:01:06;;;;;;;;;;;2.10;99.90;;;;;;5070134;28;19928;-88
2022/02/11 06:03:34;;;;;;;;;;;2.00;99.90;;;;;;5085550;28;19928;-88
2022/02/11 06:06:01;;;;;;;;;;;2.00;99.90;;;;;;5083980;28;19931;-88
2022/02/11 06:08:31;;;;;;;;;;;1.90;99.90;;;;;;5083218;28;19924;-88
2022/02/11 06:10:59;;;;;;;;;;;1.90;99.90;;;;;;5080069;28;19928;-87
2022/02/11 06:13:26;;;;;;;;;;;1.90;99.90;;;;;;5047993;28;19931;-87
2022/02/11 06:15:55;;;;;;;;;;;1.90;99.90;;;;;;5099664;28;19935;-87
2022/02/11 06:18:23;;;;;;;;;;;1.90;99.90;;;;;;5066197;28;19924;-88
2022/02/11 06:20:51;;;;;;;;;;;2.90;99.90;;;;;;5063768;28;19929;-87
2022/02/11 06:23:19;;;;;;;;;;;1.60;99.90;;;;;;5064045;28;19935;-86
2022/02/11 06:25:48;;;;;;;;;;;1.80;99.90;;;;;;5047720;28;19931;-88
2022/02/11 06:28:16;;;;;;;;;;;1.90;99.90;;;;;;5063937;28;19925;-89
2022/02/11 06:30:45;;;;;;;;;;;1.80;99.90;;;;;;5063775;28;19935;-87
2022/02/11 06:33:13;;;;;;;;;;;1.90;99.90;;;;;;5045458;28;19925;-87
2022/02/11 06:35:44;;;;;;;;;;;1.10;99.90;;;;;;5081924;28;19924;-86
2022/02/11 06:38:13;;;;;;;;;;;1.90;99.90;;;;;;5063061;28;19925;-88
2022/02/11 06:40:41;;;;;;;;;;;1.90;99.90;;;;;;5064094;28;20272;-87
2022/02/11 06:43:10;;;;;;;;;;;1.90;99.90;;;;;;5047314;28;19928;-90
2022/02/11 06:45:38;;;;;;;;;;;1.90;99.90;;;;;;5064819;28;19931;-88
2022/02/11 06:48:05;;;;;;;;;;;2.00;99.90;;;;;;5063669;28;19939;-87
2022/02/11 06:50:34;;;;;;;;;;;1.90;99.90;;;;;;5077454;28;19931;-87
2022/02/11 06:53:04;;;;;;;;;;;2.20;99.90;;;;;;5102345;28;19924;-88
2022/02/11 06:55:34;;;;;;;;;;;2.20;99.90;;;;;;5086990;28;19931;-88
2022/02/11 06:58:03;;;;;;;;;;;2.20;99.90;;;;;;5052959;28;19924;-87
2022/02/11 07:00:32;;;;;;;;;;;2.30;99.90;;;;;;5065338;28;19925;-86
2022/02/11 07:03:03;;;;;;;;;;;2.40;99.90;;;;;;5068647;28;19924;-88
2022/02/11 07:05:33;;;;;;;;;;;2.70;99.90;;;;;;5066796;28;19934;-87
2022/02/11 07:08:01;;;;;;;;;;;2.50;99.90;;;;;;5064825;28;19924;-88
2022/02/11 07:10:28;;;;;;;;;;;2.50;99.90;;;;;;5083453;28;19932;-87
2022/02/11 07:12:59;;;;;;;;;;;2.60;99.90;;;;;;5081760;28;19924;-87
2022/02/11 07:15:27;;;;;;;;;;;2.70;99.90;;;;;;5064674;28;19928;-88
2022/02/11 07:17:55;;;;;;;;;;;2.70;99.90;;;;;;5080263;28;19928;-87
2022/02/11 07:20:25;;;;;;;;;;;2.80;99.90;;;;;;5077936;28;19936;-87
2022/02/11 07:22:52;;;;;;;;;;;2.80;99.90;;;;;;5080866;28;19932;-87
2022/02/11 07:25:20;;;;;;;;;;;2.80;99.90;;;;;;5081880;28;20453;-88
2022/02/11 07:27:48;;;;;;;;;;;3.40;99.90;;;;;;5049459;28;19935;-88
2022/02/11 07:30:31;;;;;;;;;;;2.80;99.90;;;;;;5084842;28;19935;-89
2022/02/11 07:33:01;;;;;;;;;;;2.90;99.90;;;;;;5081674;28;19924;-89
2022/02/11 07:35:30;;;;;;;;;;;3.00;99.90;;;;;;5054555;28;19940;-87
2022/02/11 07:38:00;;;;;;;;;;;2.80;99.90;;;;;;5053442;28;19924;-87
2022/02/11 07:40:28;;;;;;;;;;;3.10;99.90;;;;;;5072998;28;19925;-85
2022/02/11 07:42:56;;;;;;;;;;;2.80;99.90;;;;;;5065459;28;19932;-87
2022/02/11 07:45:27;;;;;;;;;;;2.70;99.90;;;;;;5066659;28;19939;-87
2022/02/11 07:47:55;;;;;;;;;;;2.40;99.90;;;;;;5042351;28;19949;-87
2022/02/11 07:50:24;;;;;;;;;;;2.70;99.90;;;;;;5062852;28;19925;-86
2022/02/11 07:52:53;;;;;;;;;;;2.70;99.90;;;;;;5060086;28;20522;-87
2022/02/11 07:55:21;;;;;;;;;;;2.70;99.90;;;;;;5090282;28;19959;-88
2022/02/11 07:57:49;;;;;;;;;;;3.00;99.90;;;;;;5082775;28;19929;-88
2022/02/11 08:00:17;;;;;;;;;;;2.60;99.90;;;;;;5094065;28;20228;-86
2022/02/11 08:02:45;;;;;;;;;;;2.60;99.90;;;;;;5101046;28;19924;-85
2022/02/11 08:05:13;;;;;;;;;;;2.60;99.90;;;;;;5079261;28;19924;-87
2022/02/11 08:07:43;;;;;;;;;;;2.60;99.90;;;;;;5058906;28;19924;-87
2022/02/11 08:10:11;;;;;;;;;;;2.60;99.90;;;;;;5035721;28;19924;-90
2022/02/11 08:12:40;;;;;;;;;;;2.70;99.90;;;;;;5098321;28;19924;-88
2022/02/11 08:15:08;;;;;;;;;;;2.70;99.90;;;;;;5066419;28;20314;-87
2022/02/11 08:17:40;;;;;;;;;;;2.50;99.90;;;;;;5065633;28;19924;-88
2022/02/11 08:20:10;;;;;;;;;;;2.70;99.90;;;;;;5079050;28;19928;-88
2022/02/11 08:22:39;;;;;;;;;;;2.00;99.90;;;;;;5069918;28;19935;-90
2022/02/11 08:25:07;;;;;;;;;;;2.80;99.90;;;;;;5058549;28;19928;-88
2022/02/11 08:27:36;;;;;;;;;;;2.90;99.90;;;;;;5063012;28;19932;-89
2022/02/11 08:30:06;;;;;;;;;;;2.90;99.90;;;;;;5081763;28;19948;-89
2022/02/11 08:32:34;;;;;;;;;;;2.90;99.90;;;;;;5079590;28;19924;-89
2022/02/11 08:35:04;;;;;;;;;;;2.90;99.90;;;;;;5041878;28;19928;-89
2022/02/11 08:37:33;;;;;;;;;;;3.00;99.90;;;;;;5078869;28;19928;-89
2022/02/11 08:40:02;;;;;;;;;;;3.00;99.90;;;;;;5030606;28;19928;-89
2022/02/11 08:42:32;;;;;;;;;;;3.00;99.90;;;;;;5080113;28;19971;-88
2022/02/11 08:45:02;;;;;;;;;;;3.10;99.90;;;;;;5046736;28;20414;-89
2022/02/11 08:47:32;;;;;;;;;;;3.10;99.90;;;;;;5045011;28;19924;-88
2022/02/11 08:50:02;;;;;;;;;;;3.20;99.90;;;;;;5068847;28;19943;-88
2022/02/11 08:52:31;;;;;;;;;;;3.20;99.90;;;;;;5063842;28;19939;-87
2022/02/11 08:55:02;;;;;;;;;;;3.40;99.90;;;;;;5081045;28;19938;-89
2022/02/11 08:57:34;;;;;;;;;;;3.40;99.90;;;;;;5064132;28;19924;-89
2022/02/11 09:00:04;;;;;;;;;;;3.50;99.90;;;;;;5086026;28;20398;-89
2022/02/11 09:02:32;;;;;;;;;;;3.50;99.90;;;;;;5086459;28;19928;-89
2022/02/11 09:05:01;;;;;;;;;;;3.60;99.90;;;;;;5104636;28;19924;-89
2022/02/11 09:07:31;;;;;;;;;;;5.60;99.90;;;;;;5106507;28;20662;-90
2022/02/11 09:09:58;;;;;;;;;;;3.60;99.90;;;;;;5100079;28;19924;-90
2022/02/11 09:12:26;;;;;;;;;;;3.70;99.90;;;;;;5067578;28;19931;-88
2022/02/11 09:14:54;;;;;;;;;;;3.80;99.90;;;;;;5076694;28;19935;-89
2022/02/11 09:17:23;;;;;;;;;;;3.90;99.90;;;;;;5063254;28;19932;-88
2022/02/11 09:19:52;;;;;;;;;;;3.90;99.90;;;;;;5075545;28;20387;-88
2022/02/11 09:22:20;;;;;;;;;;;4.00;99.90;;;;;;5046521;28;19924;-89
2022/02/11 09:24:47;;;;;;;;;;;4.00;99.90;;;;;;5081428;28;19924;-89
2022/02/11 09:27:17;;;;;;;;;;;4.10;99.90;;;;;;5079958;28;19924;-89
2022/02/11 09:29:45;;;;;;;;;;;4.10;99.90;;;;;;5064905;28;19998;-88
2022/02/11 09:32:16;;;;;;;;;;;4.20;99.90;;;;;;5063480;28;19951;-89
2022/02/11 09:34:45;;;;;;;;;;;4.30;99.90;;;;;;5062865;28;19939;-89
2022/02/11 09:37:13;;;;;;;;;;;4.30;99.90;;;;;;5065298;28;19924;-89
2022/02/11 09:39:43;;;;;;;;;;;4.40;99.90;;;;;;5056500;28;19935;-88
2022/02/11 09:42:14;;;;;;;;;;;6.40;99.90;;;;;;5084602;28;19928;-89
2022/02/11 09:44:48;;;;;;;;;;;4.50;99.90;;;;;;5084558;28;19924;-92
2022/02/11 09:47:17;;;;;;;;;;;4.50;99.90;;;;;;5086776;28;19957;-89
2022/02/11 09:49:44;;;;;;;;;;;4.50;99.90;;;;;;5087315;28;19912;-89
2022/02/11 09:52:14;;;;;;;;;;;4.60;99.90;;;;;;5073828;28;19919;-90
2022/02/11 09:54:45;;;;;;;;;;;4.70;99.90;;;;;;5057727;28;19924;-90
2022/02/11 09:57:19;;;;;;;;;;;4.70;99.90;;;;;;5074053;28;20391;-90
2022/02/11 09:59:48;;;;;;;;;;;4.80;99.90;;;;;;5081166;28;19931;-89
2022/02/11 10:02:24;;;;;;;;;;;4.00;99.90;;;;;;5100300;28;19932;-90
2022/02/11 10:04:57;;;;;;;;;;;4.80;99.90;;;;;;5083737;28;19908;-89
2022/02/11 10:07:25;;;;;;;;;;;4.90;99.90;;;;;;5063994;28;19924;-89
2022/02/11 10:09:53;;;;;;;;;;;5.40;99.90;;;;;;5069590;28;19924;-90
2022/02/11 10:12:24;;;;;;;;;;;5.00;99.90;;;;;;5084739;28;19924;-91
2022/02/11 10:14:53;;;;;;;;;;;5.10;99.90;;;;;;5085333;28;19947;-90
2022/02/11 10:17:22;;;;;;;;;;;5.10;99.90;;;;;;5082846;28;20394;-90
2022/02/11 10:19:55;;;;;;;;;;;5.20;99.90;;;;;;5073033;28;19920;-90
2022/02/11 10:22:28;;;;;;;;;;;5.20;99.90;;;;;;5083272;28;19924;-90
2022/02/11 10:24:57;;;;;;;;;;;5.30;99.90;;;;;;5068291;28;19931;-90
2022/02/11 10:27:26;;;;;;;;;;;5.30;99.90;;;;;;5066325;28;19924;-90
2022/02/11 10:29:57;;;;;;;;;;;5.40;99.90;;;;;;5084472;28;19924;-89
2022/02/11 10:32:37;;;;;;;;;;;5.50;99.90;;;;;;5084487;28;19947;-90
2022/02/11 10:35:07;;;;;;;;;;;5.50;99.90;;;;;;5047213;28;19928;-90
2022/02/11 10:38:08;;;;;;;;;;;5.60;99.90;;;;;;5066751;28;19925;-89
2022/02/11 10:40:38;;;;;;;;;;;5.60;99.90;;;;;;5096136;28;19935;-89
2022/02/11 10:43:17;;;;;;;;;;;5.70;99.90;;;;;;5084328;28;19924;-89
2022/02/11 10:45:47;;;;;;;;;;;5.80;99.90;;;;;;5101368;28;19943;-90
2022/02/11 10:48:17;;;;;;;;;;;5.80;99.90;;;;;;5083692;28;19932;-88
2022/02/11 10:50:57;;;;;;;;;;;5.90;99.90;;;;;;5063161;28;19928;-89
2022/02/11 10:53:29;;;;;;;;;;;5.90;99.90;;;;;;5064149;28;19925;-88
2022/02/11 10:55:58;;;;;;;;;;;6.00;99.90;;;;;;5063616;28;19928;-90
2022/02/11 10:58:32;;;;;;;;;;;6.00;99.90;;;;;;5069318;28;19932;-88
2022/02/11 11:01:01;;;;;;;;;;;6.10;99.90;;;;;;5057996;28;19919;-89
2022/02/11 11:03:35;;;;;;;;;;;6.20;99.90;;;;;;5081991;28;19952;-87
2022/02/11 11:06:05;;;;;;;;;;;6.80;99.90;;;;;;5087096;28;19923;-89
2022/02/11 11:08:39;;;;;;;;;;;6.30;99.90;;;;;;5070742;28;19931;-88
2022/02/11 11:11:11;;;;;;;;;;;6.30;99.90;;;;;;5047199;28;19925;-86
2022/02/11 11:13:42;;;;;;;;;;;6.40;99.90;;;;;;5062908;28;19932;-86
2022/02/11 11:16:15;;;;;;;;;;;6.40;99.90;;;;;;5063640;28;19939;-88
2022/02/11 11:18:48;;;;;;;;;;;6.50;99.90;;;;;;5064078;28;19928;-89
2022/02/11 11:21:16;;;;;;;;;;;6.40;99.90;;;;;;5045612;28;19923;-89
2022/02/11 11:23:57;;;;;;;;;;;6.60;99.90;;;;;;5098293;28;20387;-89
2022/02/11 11:26:42;;;;;;;;;;;6.60;99.90;;;;;;5081343;28;19939;-88
2022/02/11 11:29:12;;;;;;;;;;;6.60;99.90;;;;;;5081325;28;20394;-89
2022/02/11 11:31:52;;;;;;;;;;;6.60;99.90;;;;;;5064447;28;19924;-89
2022/02/11 11:34:24;;;;;;;;;;;6.70;99.90;;;;;;5080764;28;19924;-89
2022/02/11 11:36:57;;;;;;;;;;;6.70;99.90;;;;;;5065479;28;19939;-90
2022/02/11 11:39:25;;;;;;;;;;;6.80;99.90;;;;;;5078391;28;19924;-89
2022/02/11 11:41:59;;;;;;;;;;;6.90;99.90;;;;;;5072915;28;19932;-88
2022/02/11 11:44:49;;;;;;;;;;;7.00;99.90;;;;;;5100115;28;20405;-88
2022/02/11 11:47:30;;;;;;;;;;;7.10;99.90;;;;;;5064783;28;19924;-89
2022/02/11 11:49:58;;;;;;;;;;;7.10;99.90;;;;;;5082324;28;19924;-88
2022/02/11 11:52:40;;;;;;;;;;;7.20;99.90;;;;;;5076500;28;19925;-87
2022/02/11 11:55:15;;;;;;;;;;;7.30;99.90;;;;;;5063027;28;19933;-88
2022/02/11 11:57:43;;;;;;;;;;;7.40;99.90;;;;;;5046915;28;19925;-88
2022/02/11 12:00:31;;;;;;;;;;;7.50;99.90;;;;;;5061457;28;19931;-88
2022/02/11 12:02:59;;;;;;;;;;;7.30;99.90;;;;;;5043908;28;19924;-88
2022/02/11 12:05:40;;;;;;;;;;;7.70;99.90;;;;;;5077674;28;20307;-87
2022/02/11 12:08:09;;;;;;;;;;;7.80;99.90;;;;;;5059872;28;19928;-86
2022/02/11 12:10:39;;;;;;;;;;;7.80;99.90;;;;;;5040083;28;19924;-87
2022/02/11 12:13:14;;;;;;;;;;;7.90;99.90;;;;;;5046310;28;19933;-87
2022/02/11 12:15:44;;;;;;;;;;;7.90;99.90;;;;;;5057246;28;19935;-88
2022/02/11 12:18:19;;;;;;;;;;;7.90;99.90;;;;;;5047870;28;20398;-88
2022/02/11 12:20:46;;;;;;;;;;;7.90;99.90;;;;;;5080946;28;20094;-89
2022/02/11 12:28:58;;;;;;;;;;;7.90;99.90;;;;;;5076261;28;19931;-90
2022/02/11 12:31:29;;;;;;;;;;;7.90;99.90;;;;;;5044045;28;19925;-89
2022/02/11 12:34:16;;;;;;;;;;;7.90;99.90;;;;;;5066526;28;19924;-89
2022/02/11 12:36:44;;;;;;;;;;;7.90;99.90;;;;;;5052068;28;19928;-88
2022/02/11 12:39:16;;;;;;;;;;;7.90;99.90;;;;;;5084075;28;19928;-88
2022/02/11 12:41:50;;;;;;;;;;;8.30;99.90;;;;;;5066360;28;20383;-89
2022/02/11 12:44:31;;;;;;;;;;;8.10;99.90;;;;;;5064509;28;19928;-90
2022/02/11 12:47:02;;;;;;;;;;;8.10;99.90;;;;;;5082882;28;20314;-88
2022/02/11 12:49:35;;;;;;;;;;;8.20;99.90;;;;;;5071344;28;20409;-86
2022/02/11 12:52:03;;;;;;;;;;;8.20;99.90;;;;;;5081136;28;19924;-89
2022/02/11 12:54:34;;;;;;;;;;;8.30;99.90;;;;;;5033018;28;19925;-89
2022/02/11 12:57:12;;;;;;;;;;;8.30;99.90;;;;;;5063638;28;19925;-90
2022/02/11 12:59:52;;;;;;;;;;;8.40;99.90;;;;;;5047610;28;19925;-90
2022/02/11 13:02:24;;;;;;;;;;;8.40;99.90;;;;;;5062201;28;19925;-87
2022/02/11 13:05:02;;;;;;;;;;;8.50;99.90;;;;;;5080300;28;19931;-88
2022/02/11 13:07:31;;;;;;;;;;;8.60;99.90;;;;;;5064227;28;19959;-88
2022/02/11 13:10:01;;;;;;;;;;;8.60;99.90;;;;;;5099963;28;20434;-88
2022/02/11 13:12:35;;;;;;;;;;;8.70;99.90;;;;;;5082246;28;19924;-88
2022/02/11 13:15:09;;;;;;;;;;;8.80;99.90;;;;;;5068912;28;19925;-88
2022/02/11 13:17:38;;;;;;;;;;;8.80;99.90;;;;;;5061853;28;20010;-89
2022/02/11 13:20:13;;;;;;;;;;;8.90;99.90;;;;;;5063937;28;20276;-89
2022/02/11 13:22:43;;;;;;;;;;;8.90;99.90;;;;;;5084070;28;19939;-89
2022/02/11 13:25:12;;;;;;;;;;;9.40;99.90;;;;;;5084485;28;19932;-87
2022/02/11 13:27:42;;;;;;;;;;;9.00;99.90;;;;;;5083860;28;20402;-90
2022/02/11 13:30:22;;;;;;;;;;;9.00;99.90;;;;;;5083941;28;19932;-90
2022/02/11 13:32:54;;;;;;;;;;;9.10;99.90;;;;;;5047070;28;19936;-88
2022/02/11 13:35:23;;;;;;;;;;;9.20;99.90;;;;;;5086386;28;19929;-86
2022/02/11 13:37:54;;;;;;;;;;;9.30;99.90;;;;;;5077990;28;20303;-89
2022/02/11 13:40:23;;;;;;;;;;;9.50;99.90;;;;;;5081548;28;19924;-89
2022/02/11 13:42:52;;;;;;;;;;;10.20;99.90;;;;;;5087992;28;19924;-90
2022/02/11 13:45:49;;;;;;;;;;;9.70;99.90;;;;;;5093662;28;20383;-90
2022/02/11 13:48:23;;;;;;;;;;;9.70;99.40;;;;;;5083971;28;19919;-87
2022/02/11 13:51:02;;;;;;;;;;;9.70;99.90;;;;;;5051107;28;20000;-89
2022/02/11 13:53:36;;;;;;;;;;;9.70;99.90;;;;;;5081709;28;19925;-93
2022/02/11 13:56:10;;;;;;;;;;;11.40;99.90;;;;;;5083537;28;19928;-91
2022/02/11 13:59:03;;;;;;;;;;;9.70;99.90;;;;;;5090028;28;19939;-91
2022/02/11 14:01:34;;;;;;;;;;;9.80;99.90;;;;;;5042880;28;19934;-92
2022/02/11 14:04:16;;;;;;;;;;;9.80;99.90;;;;;;5082678;28;19932;-93
2022/02/11 14:06:59;;;;;;;;;;;9.90;99.90;;;;;;5059259;28;19925;-92
2022/02/11 14:09:35;;;;;;;;;;;10.00;97.60;;;;;;5107146;28;19930;-90
2022/02/11 14:12:04;;;;;;;;;;;10.00;97.80;;;;;;5089493;28;19924;-93
2022/02/11 14:14:58;;;;;;;;;;;10.10;98.00;;;;;;5107884;28;19938;-93
2022/02/11 14:17:34;;;;;;;;;;;10.10;98.30;;;;;;5092645;28;19924;-92
2022/02/11 14:20:05;;;;;;;;;;;10.30;97.90;;;;;;5065821;28;20454;-93
2022/02/11 14:22:35;;;;;;;;;;;10.30;98.20;;;;;;5072341;28;19925;-92
2022/02/11 14:25:08;;;;;;;;;;;10.50;96.80;;;;;;5093011;28;19925;-92
2022/02/11 14:27:41;;;;;;;;;;;10.50;97.60;;;;;;5114841;28;19928;-92
2022/02/11 14:30:15;;;;;;;;;;;10.60;96.30;;;;;;5100410;28;19920;-94
2022/02/11 14:32:45;;;;;;;;;;;10.60;97.00;;;;;;5087589;22;19925;-93
2022/02/11 14:35:26;;;;;;;;;;;10.70;96.30;;;;;;5036839;28;19935;-95
2022/02/11 14:37:57;;;;;;;;;;;10.70;96.10;;;;;;5069043;28;19917;-92
2022/02/11 14:40:28;;;;;;;;;;;10.70;95.90;;;;;;5053231;28;19929;-94
2022/02/11 14:43:04;;;;;;;;;;;10.70;95.20;;;;;;5052989;28;19925;-94
2022/02/11 14:45:42;;;;;;;;;;;10.70;96.30;;;;;;5036079;28;19913;-93
2022/02/11 14:48:10;;;;;;;;;;;10.00;95.50;;;;;;5051638;28;19939;-95
2022/02/11 14:50:51;;;;;;;;;;;10.80;96.10;;;;;;5035422;28;19926;-95
2022/02/11 14:53:34;;;;;;;;;;;10.70;95.50;;;;;;5016186;28;19925;-91
2022/02/11 14:56:07;;;;;;;;;;;10.60;95.70;;;;;;5034156;28;19936;-95
2022/02/11 14:58:46;;;;;;;;;;;10.40;95.80;;;;;;5016798;28;19926;-95
2022/02/11 15:01:16;;;;;;;;;;;10.30;96.00;;;;;;5017204;28;19929;-89
2022/02/11 15:03:56;;;;;;;;;;;10.30;96.20;;;;;;5018830;28;19920;-91
2022/02/11 15:06:32;;;;;;;;;;;10.40;96.40;;;;;;4996451;28;19918;-91
2022/02/11 15:09:15;;;;;;;;;;;10.40;96.80;;;;;;5019602;28;19988;-94
2022/02/11 15:11:46;;;;;;;;;;;10.40;97.00;;;;;;5029605;28;20028;-92
2022/02/11 15:14:29;;;;;;;;;;;10.40;96.30;;;;;;5044852;28;19925;-95
2022/02/11 15:17:17;;;;;;;;;;;10.60;96.10;;;;;;5026997;28;19925;-92
2022/02/11 15:19:53;;;;;;;;;;;10.30;96.00;;;;;;5011981;28;19930;-95
2022/02/11 15:22:24;;;;;;;;;;;10.50;96.60;;;;;;5013049;28;19969;-95
2022/02/11 15:24:57;;;;;;;;;;;10.70;96.60;;;;;;5027524;28;20001;-94
2022/02/11 15:27:29;;;;;;;;;;;10.70;96.80;;;;;;4995691;28;19926;-92
2022/02/11 15:29:58;;;;;;;;;;;10.80;94.80;;;;;;5035448;28;19925;-95
2022/02/11 15:32:28;;;;;;;;;;;10.80;95.60;;;;;;5010209;28;19927;-95
2022/02/11 15:35:04;;;;;;;;;;;10.70;95.60;;;;;;5030147;28;19926;-94
2022/02/11 15:37:32;;;;;;;;;;;10.60;95.20;;;;;;5028106;28;19929;-94
2022/02/11 15:40:03;;;;;;;;;;;10.40;96.00;;;;;;5009439;28;19925;-93
2022/02/11 15:42:34;;;;;;;;;;;10.30;95.70;;;;;;5023800;28;19932;-92
2022/02/11 15:45:04;;;;;;;;;;;10.20;95.60;;;;;;5026025;28;19932;-93
2022/02/11 15:47:37;;;;;;;;;;;10.10;95.80;;;;;;5031380;28;19932;-91
2022/02/11 15:50:11;;;;;;;;;;;9.90;96.00;;;;;;4677600;28;10000562;-89
2022/02/11 15:52:40;;;;;;;;;;;9.80;96.30;;;;;;5011641;28;19940;-94
2022/02/11 15:55:15;;;;;;;;;;;9.60;96.80;;;;;;5005812;28;19914;-90
2022/02/11 15:57:49;;;;;;;;;;;9.50;96.50;;;;;;5040378;28;19924;-91
2022/02/11 16:00:22;;;;;;;;;;;9.40;96.80;;;;;;5029634;28;20015;-93
2022/02/11 16:02:59;;;;;;;;;;;9.30;97.30;;;;;;5014757;28;19924;-92
2022/02/11 16:05:34;;;;;;;;;;;9.90;97.40;;;;;;5008313;28;19936;-93
2022/02/11 16:08:11;;;;;;;;;;;9.30;97.50;;;;;;5020014;28;19932;-94
2022/02/11 16:10:52;;;;;;;;;;;9.30;97.80;;;;;;5042056;28;20304;-93
2022/02/11 16:13:35;;;;;;;;;;;9.00;98.20;;;;;;5013644;28;19935;-92
2022/02/11 16:16:05;;;;;;;;;;;9.20;98.10;;;;;;5013892;28;19926;-93
2022/02/11 16:18:44;;;;;;;;;;;9.30;98.30;;;;;;4996574;28;20249;-92
2022/02/11 16:21:12;;;;;;;;;;;9.10;98.10;;;;;;4999061;28;19929;-91
2022/02/11 16:23:42;;;;;;;;;;;9.10;97.90;;;;;;5009161;28;20277;-90
2022/02/11 16:26:12;;;;;;;;;;;9.10;98.10;;;;;;5002485;28;19926;-89
2022/02/11 16:28:46;;;;;;;;;;;9.00;97.60;;;;;;4999441;28;19936;-90
2022/02/11 16:31:24;;;;;;;;;;;9.00;97.90;;;;;;5013144;28;20299;-91
2022/02/11 16:33:56;;;;;;;;;;;8.90;97.60;;;;;;4979267;28;19929;-93
2022/02/11 16:36:27;;;;;;;;;;;8.90;97.90;;;;;;5009054;28;19960;-92
2022/02/11 16:38:57;;;;;;;;;;;8.90;98.00;;;;;;4989038;28;19934;-92
2022/02/11 16:41:28;;;;;;;;;;;8.80;97.80;;;;;;5013342;28;19941;-91
2022/02/11 16:44:15;;;;;;;;;;;8.80;98.00;;;;;;4986752;28;19937;-91
2022/02/11 16:46:49;;;;;;;;;;;8.70;98.10;;;;;;5016284;28;19934;-91
2022/02/11 16:49:23;;;;;;;;;;;8.70;98.30;;;;;;5021999;28;19933;-91
2022/02/11 16:51:54;;;;;;;;;;;8.70;98.20;;;;;;5001952;28;19925;-88
2022/02/11 16:54:36;;;;;;;;;;;9.10;98.40;;;;;;5011934;28;19932;-92
2022/02/11 16:57:09;;;;;;;;;;;8.60;98.20;;;;;;5008681;28;19925;-92
2022/02/11 16:59:38;;;;;;;;;;;8.50;98.30;;;;;;5028945;28;19930;-90
2022/02/11 17:02:27;;;;;;;;;;;8.50;98.60;;;;;;4980476;28;20738;-90
2022/02/11 17:04:58;;;;;;;;;;;8.50;98.60;;;;;;5007053;28;19926;-91
2022/02/11 17:07:33;;;;;;;;;;;8.50;98.70;;;;;;5032105;28;19930;-91
2022/02/11 17:10:14;;;;;;;;;;;8.40;98.80;;;;;;4993261;28;20005;-92
2022/02/11 17:13:01;;;;;;;;;;;8.40;98.90;;;;;;5009903;28;19934;-90
2022/02/11 17:15:36;;;;;;;;;;;8.40;99.10;;;;;;5009911;28;19930;-92
2022/02/11 17:18:04;;;;;;;;;;;8.20;99.50;;;;;;5003006;28;19941;-93
2022/02/11 17:20:36;;;;;;;;;;;8.20;99.90;;;;;;4989457;28;19926;-92
2022/02/11 17:23:24;;;;;;;;;;;8.10;99.90;;;;;;5003553;28;19926;-90
2022/02/11 17:26:05;;;;;;;;;;;7.00;99.90;;;;;;4994900;28;19929;-89
2022/02/11 17:28:34;;;;;;;;;;;7.80;99.90;;;;;;4992133;28;19926;-90
2022/02/11 17:31:03;;;;;;;;;;;7.70;99.90;;;;;;5012348;28;19929;-90
2022/02/11 17:33:32;;;;;;;;;;;7.60;99.90;;;;;;5006312;28;19936;-89
2022/02/11 17:36:01;;;;;;;;;;;7.50;99.90;;;;;;4996528;28;20499;-91
2022/02/11 17:38:52;;;;;;;;;;;7.40;99.90;;;;;;5000858;28;19936;-89
2022/02/11 17:41:35;;;;;;;;;;;7.30;99.90;;;;;;5019928;28;19930;-91
2022/02/11 17:44:05;;;;;;;;;;;7.20;99.90;;;;;;5008540;28;19937;-90
2022/02/11 17:46:35;;;;;;;;;;;7.10;99.90;;;;;;4994366;28;19934;-91
2022/02/11 17:49:06;;;;;;;;;;;7.00;99.90;;;;;;5032346;28;19926;-90
2022/02/11 17:51:52;;;;;;;;;;;6.90;99.90;;;;;;5014917;28;19929;-90
2022/02/11 17:54:23;;;;;;;;;;;6.90;99.90;;;;;;5022239;28;19926;-91
2022/02/11 17:56:51;;;;;;;;;;;6.80;99.90;;;;;;5011284;28;19936;-92
2022/02/11 17:59:20;;;;;;;;;;;6.70;99.90;;;;;;5013135;28;19940;-91
2022/02/11 18:01:47;;;;;;;;;;;6.70;99.90;;;;;;5012266;28;19945;-92
2022/02/11 18:04:15;;;;;;;;;;;6.60;99.90;;;;;;5006127;28;20320;-91
2022/02/11 18:06:46;;;;;;;;;;;6.40;99.90;;;;;;5020633;28;19933;-91
2022/02/11 18:09:14;;;;;;;;;;;6.50;99.90;;;;;;5007569;28;19925;-90
2022/02/11 18:11:42;;;;;;;;;;;6.50;99.90;;;;;;4992812;28;19936;-90
2022/02/11 18:14:11;;;;;;;;;;;6.40;99.90;;;;;;4993595;28;20389;-92
2022/02/11 18:16:42;;;;;;;;;;;6.40;99.90;;;;;;4998131;28;20253;-93
2022/02/11 18:19:10;;;;;;;;;;;6.40;99.90;;;;;;4998508;28;19926;-90
2022/02/11 18:21:41;;;;;;;;;;;6.30;99.90;;;;;;4998070;28;19941;-90
2022/02/11 18:24:18;;;;;;;;;;;6.30;99.90;;;;;;4988909;28;20446;-91
2022/02/11 18:26:46;;;;;;;;;;;6.50;99.90;;;;;;5012177;28;19926;-93
2022/02/11 18:29:14;;;;;;;;;;;6.20;99.90;;;;;;5012391;28;19926;-92
2022/02/11 18:31:44;;;;;;;;;;;6.20;99.90;;;;;;4995053;28;19929;-92
2022/02/11 18:34:13;;;;;;;;;;;6.10;99.90;;;;;;5010808;28;19932;-92
2022/02/11 18:36:51;;;;;;;;;;;6.10;99.90;;;;;;5006021;28;19925;-90
2022/02/11 18:39:28;;;;;;;;;;;6.10;99.90;;;;;;5012874;28;19941;-91
2022/02/11 18:41:59;;;;;;;;;;;6.00;99.90;;;;;;4987605;28;19933;-92
2022/02/11 18:44:32;;;;;;;;;;;6.00;99.90;;;;;;5003499;28;19937;-95
2022/02/11 18:47:06;;;;;;;;;;;5.90;99.90;;;;;;5015354;28;19933;-95
2022/02/11 18:49:42;;;;;;;;;;;5.90;99.90;;;;;;4961035;28;19926;-94
2022/02/11 18:52:10;;;;;;;;;;;5.80;99.90;;;;;;4987118;28;19934;-95
2022/02/11 18:54:39;;;;;;;;;;;5.80;99.90;;;;;;5022570;28;19933;-95
2022/02/11 18:57:07;;;;;;;;;;;5.80;99.90;;;;;;4981789;28;20332;-93
2022/02/11 19:02:35;;;;;;;;;;;5.70;99.90;;;;;;5018633;28;19933;-95